sensor_id;sensor_type;location;lat;lon;timestamp;noise_LAeq;noise_LA_min;noise_LA_max;noise_LA01;noise_LA95
43787;Laerm;29409;49.306;8.500;2022-11-20T00:00:19;39.14;36.10;46.76;;
43787;Laerm;29409;49.306;8.500;2022-11-20T00:01:57;39.54;35.94;46.95;;
43787;Laerm;29409;49.306;8.500;2022-11-20T00:03:35;39.37;35.66;44.90;;
43787;Laerm;29409;49.306;8.500;2022-11-20T00:05:13;39.88;35.36;46.38;;
43787;Laerm;29409;49.306;8.500;2022-11-20T00:06:51;38.88;35.04;45.39;;
43787;Laerm;29409;49.306;8.500;2022-11-20T00:08:30;39.28;34.31;46.40;;
43787;Laerm;29409;49.306;8.500;2022-11-20T00:10:07;38.71;34.69;42.35;;
43787;Laerm;29409;49.306;8.500;2022-11-20T00:11:45;38.61;35.04;43.14;;
43787;Laerm;29409;49.306;8.500;2022-11-20T00:13:23;40.59;35.36;50.06;;
43787;Laerm;29409;49.306;8.500;2022-11-20T00:15:01;38.87;34.69;43.81;;
43787;Laerm;29409;49.306;8.500;2022-11-20T00:16:38;38.88;35.04;42.00;;
43787;Laerm;29409;49.306;8.500;2022-11-20T00:18:16;38.84;35.36;42.98;;
43787;Laerm;29409;49.306;8.500;2022-11-20T00:19:54;39.12;35.31;43.58;;
43787;Laerm;29409;49.306;8.500;2022-11-20T00:21:33;40.07;34.69;47.46;;
43787;Laerm;29409;49.306;8.500;2022-11-20T00:23:14;42.17;34.69;57.47;;
43787;Laerm;29409;49.306;8.500;2022-11-20T00:24:52;38.97;35.04;45.39;;
43787;Laerm;29409;49.306;8.500;2022-11-20T00:26:30;38.57;32.35;42.93;;
43787;Laerm;29409;49.306;8.500;2022-11-20T00:28:08;38.89;34.69;41.46;;
43787;Laerm;29409;49.306;8.500;2022-11-20T00:29:46;39.59;34.31;48.00;;
43787;Laerm;29409;49.306;8.500;2022-11-20T00:31:24;38.68;34.69;49.72;;
43787;Laerm;29409;49.306;8.500;2022-11-20T00:33:02;39.38;35.04;45.14;;
43787;Laerm;29409;49.306;8.500;2022-11-20T00:34:39;48.82;34.69;67.70;;
43787;Laerm;29409;49.306;8.500;2022-11-20T00:36:22;38.51;34.31;40.89;;
43787;Laerm;29409;49.306;8.500;2022-11-20T00:38:01;39.21;34.69;45.43;;
43787;Laerm;29409;49.306;8.500;2022-11-20T00:39:39;39.95;35.04;51.11;;
43787;Laerm;29409;49.306;8.500;2022-11-20T00:41:17;38.66;35.36;41.14;;
43787;Laerm;29409;49.306;8.500;2022-11-20T00:42:55;39.82;35.66;43.19;;
43787;Laerm;29409;49.306;8.500;2022-11-20T00:44:33;39.01;35.66;42.47;;
43787;Laerm;29409;49.306;8.500;2022-11-20T00:46:15;38.80;35.66;43.29;;
43787;Laerm;29409;49.306;8.500;2022-11-20T00:47:53;38.99;35.04;42.53;;
43787;Laerm;29409;49.306;8.500;2022-11-20T00:49:31;39.03;35.66;42.03;;
43787;Laerm;29409;49.306;8.500;2022-11-20T00:51:10;42.24;35.36;52.66;;
43787;Laerm;29409;49.306;8.500;2022-11-20T00:52:49;39.01;34.31;45.94;;
43787;Laerm;29409;49.306;8.500;2022-11-20T00:54:27;38.57;34.69;41.89;;
43787;Laerm;29409;49.306;8.500;2022-11-20T00:56:06;38.58;34.69;41.19;;
43787;Laerm;29409;49.306;8.500;2022-11-20T00:57:44;38.80;34.69;43.09;;
43787;Laerm;29409;49.306;8.500;2022-11-20T00:59:22;38.49;32.93;41.06;;
43787;Laerm;29409;49.306;8.500;2022-11-20T01:01:22;38.45;33.90;43.39;;
43787;Laerm;29409;49.306;8.500;2022-11-20T01:02:58;38.52;34.31;41.75;;
43787;Laerm;29409;49.306;8.500;2022-11-20T01:04:36;39.53;35.36;44.19;;
43787;Laerm;29409;49.306;8.500;2022-11-20T01:06:33;38.72;35.36;41.22;;
43787;Laerm;29409;49.306;8.500;2022-11-20T01:08:12;38.68;34.69;41.46;;
43787;Laerm;29409;49.306;8.500;2022-11-20T01:09:51;39.22;34.31;46.13;;
43787;Laerm;29409;49.306;8.500;2022-11-20T01:11:30;38.94;34.69;44.58;;
43787;Laerm;29409;49.306;8.500;2022-11-20T01:13:08;40.04;35.04;52.51;;
43787;Laerm;29409;49.306;8.500;2022-11-20T01:15:05;42.23;35.94;55.89;;
43787;Laerm;29409;49.306;8.500;2022-11-20T01:16:44;39.44;33.90;44.51;;
43787;Laerm;29409;49.306;8.500;2022-11-20T01:18:23;38.79;34.69;42.71;;
43787;Laerm;29409;49.306;8.500;2022-11-20T01:20:00;38.63;34.69;41.22;;
43787;Laerm;29409;49.306;8.500;2022-11-20T01:21:40;38.81;34.69;43.68;;
43787;Laerm;29409;49.306;8.500;2022-11-20T01:23:18;38.82;35.36;45.94;;
43787;Laerm;29409;49.306;8.500;2022-11-20T01:24:55;39.47;35.36;47.68;;
43787;Laerm;29409;49.306;8.500;2022-11-20T01:26:34;38.59;34.31;41.30;;
43787;Laerm;29409;49.306;8.500;2022-11-20T01:28:14;39.26;35.66;43.09;;
43787;Laerm;29409;49.306;8.500;2022-11-20T01:29:51;39.01;35.04;41.30;;
43787;Laerm;29409;49.306;8.500;2022-11-20T01:31:33;38.62;34.31;42.59;;
43787;Laerm;29409;49.306;8.500;2022-11-20T01:33:12;38.43;35.04;41.14;;
43787;Laerm;29409;49.306;8.500;2022-11-20T01:34:50;38.63;34.31;41.14;;
43787;Laerm;29409;49.306;8.500;2022-11-20T01:36:30;39.12;34.69;42.71;;
43787;Laerm;29409;49.306;8.500;2022-11-20T01:38:08;38.80;34.69;42.82;;
43787;Laerm;29409;49.306;8.500;2022-11-20T01:39:47;38.84;35.36;41.96;;
43787;Laerm;29409;49.306;8.500;2022-11-20T01:41:26;38.39;33.90;40.80;;
43787;Laerm;29409;49.306;8.500;2022-11-20T01:43:24;38.61;34.31;41.61;;
43787;Laerm;29409;49.306;8.500;2022-11-20T01:45:42;38.39;34.69;42.71;;
43787;Laerm;29409;49.306;8.500;2022-11-20T01:47:01;39.01;34.69;45.23;;
43787;Laerm;29409;49.306;8.500;2022-11-20T01:48:43;38.51;34.69;41.30;;
43787;Laerm;29409;49.306;8.500;2022-11-20T01:50:25;39.02;34.69;42.71;;
43787;Laerm;29409;49.306;8.500;2022-11-20T01:52:14;38.57;33.90;41.22;;
43787;Laerm;29409;49.306;8.500;2022-11-20T01:53:53;38.69;35.36;41.06;;
43787;Laerm;29409;49.306;8.500;2022-11-20T01:55:36;39.82;35.36;49.03;;
43787;Laerm;29409;49.306;8.500;2022-11-20T01:57:17;38.99;34.34;44.43;;
43787;Laerm;29409;49.306;8.500;2022-11-20T01:58:58;40.06;34.31;46.18;;
43787;Laerm;29409;49.306;8.500;2022-11-20T02:00:38;38.94;35.36;41.53;;
43787;Laerm;29409;49.306;8.500;2022-11-20T02:02:17;38.54;34.69;40.80;;
43787;Laerm;29409;49.306;8.500;2022-11-20T02:03:55;38.52;34.31;41.38;;
43787;Laerm;29409;49.306;8.500;2022-11-20T02:07:11;38.55;35.04;41.30;;
43787;Laerm;29409;49.306;8.500;2022-11-20T02:08:51;38.90;35.66;41.75;;
43787;Laerm;29409;49.306;8.500;2022-11-20T02:10:30;38.86;35.04;41.82;;
43787;Laerm;29409;49.306;8.500;2022-11-20T02:12:09;38.92;35.04;41.53;;
43787;Laerm;29409;49.306;8.500;2022-11-20T02:14:07;38.57;34.69;40.98;;
43787;Laerm;29409;49.306;8.500;2022-11-20T02:15:45;39.23;35.36;47.44;;
43787;Laerm;29409;49.306;8.500;2022-11-20T02:17:24;38.59;34.31;42.35;;
43787;Laerm;29409;49.306;8.500;2022-11-20T02:19:02;38.38;34.31;40.71;;
43787;Laerm;29409;49.306;8.500;2022-11-20T02:20:42;38.35;33.90;40.98;;
43787;Laerm;29409;49.306;8.500;2022-11-20T02:22:27;38.64;35.04;41.14;;
43787;Laerm;29409;49.306;8.500;2022-11-20T02:24:09;39.00;33.90;45.39;;
43787;Laerm;29409;49.306;8.500;2022-11-20T02:25:49;38.48;35.01;42.29;;
43787;Laerm;29409;49.306;8.500;2022-11-20T02:27:27;38.39;35.04;40.89;;
43787;Laerm;29409;49.306;8.500;2022-11-20T02:29:04;38.58;35.04;43.58;;
43787;Laerm;29409;49.306;8.500;2022-11-20T02:30:42;39.28;33.90;47.00;;
43787;Laerm;29409;49.306;8.500;2022-11-20T02:32:30;39.30;35.04;42.09;;
43787;Laerm;29409;49.306;8.500;2022-11-20T02:34:09;38.80;34.69;41.75;;
43787;Laerm;29409;49.306;8.500;2022-11-20T02:35:47;39.32;35.66;45.39;;
43787;Laerm;29409;49.306;8.500;2022-11-20T02:37:28;38.68;34.69;41.38;;
43787;Laerm;29409;49.306;8.500;2022-11-20T02:39:08;38.74;35.04;50.12;;
43787;Laerm;29409;49.306;8.500;2022-11-20T02:40:47;38.68;35.04;44.11;;
43787;Laerm;29409;49.306;8.500;2022-11-20T02:42:25;38.58;34.34;41.22;;
43787;Laerm;29409;49.306;8.500;2022-11-20T02:44:03;39.18;35.01;43.34;;
43787;Laerm;29409;49.306;8.500;2022-11-20T02:45:41;38.61;35.04;41.46;;
43787;Laerm;29409;49.306;8.500;2022-11-20T02:47:19;39.73;35.01;48.95;;
43787;Laerm;29409;49.306;8.500;2022-11-20T02:48:56;40.02;35.36;44.03;;
43787;Laerm;29409;49.306;8.500;2022-11-20T02:50:36;38.99;35.36;41.75;;
43787;Laerm;29409;49.306;8.500;2022-11-20T02:52:15;38.84;35.04;41.30;;
43787;Laerm;29409;49.306;8.500;2022-11-20T02:53:52;39.02;35.04;41.82;;
43787;Laerm;29409;49.306;8.500;2022-11-20T02:55:30;38.61;34.31;41.38;;
43787;Laerm;29409;49.306;8.500;2022-11-20T02:57:08;38.56;35.04;41.55;;
43787;Laerm;29409;49.306;8.500;2022-11-20T02:58:45;38.67;34.69;41.38;;
43787;Laerm;29409;49.306;8.500;2022-11-20T03:00:23;38.83;34.69;41.30;;
43787;Laerm;29409;49.306;8.500;2022-11-20T03:02:01;38.95;35.31;41.38;;
43787;Laerm;29409;49.306;8.500;2022-11-20T03:03:41;38.81;35.04;41.61;;
43787;Laerm;29409;49.306;8.500;2022-11-20T03:05:18;38.93;35.66;41.96;;
43787;Laerm;29409;49.306;8.500;2022-11-20T03:06:56;39.82;35.66;42.22;;
43787;Laerm;29409;49.306;8.500;2022-11-20T03:08:34;39.93;36.20;42.71;;
43787;Laerm;29409;49.306;8.500;2022-11-20T03:10:12;39.43;35.36;41.96;;
43787;Laerm;29409;49.306;8.500;2022-11-20T03:11:50;39.94;35.36;42.47;;
43787;Laerm;29409;49.306;8.500;2022-11-20T03:13:27;39.20;35.66;41.82;;
43787;Laerm;29409;49.306;8.500;2022-11-20T03:15:06;40.34;36.20;46.35;;
43787;Laerm;29409;49.306;8.500;2022-11-20T03:16:45;40.23;36.20;42.65;;
43787;Laerm;29409;49.306;8.500;2022-11-20T03:18:23;40.16;36.20;42.42;;
43787;Laerm;29409;49.306;8.500;2022-11-20T03:20:01;40.41;35.94;50.77;;
43787;Laerm;29409;49.306;8.500;2022-11-20T03:21:39;39.02;35.04;46.55;;
43787;Laerm;29409;49.306;8.500;2022-11-20T03:23:16;38.97;33.90;48.08;;
43787;Laerm;29409;49.306;8.500;2022-11-20T03:24:54;38.89;34.69;42.47;;
43787;Laerm;29409;49.306;8.500;2022-11-20T03:26:32;38.87;35.36;41.61;;
43787;Laerm;29409;49.306;8.500;2022-11-20T03:28:10;38.90;35.36;45.83;;
43787;Laerm;29409;49.306;8.500;2022-11-20T03:29:50;38.75;35.36;42.65;;
43787;Laerm;29409;49.306;8.500;2022-11-20T03:31:28;38.67;35.04;42.29;;
43787;Laerm;29409;49.306;8.500;2022-11-20T03:33:07;38.74;34.69;41.38;;
43787;Laerm;29409;49.306;8.500;2022-11-20T03:34:45;39.22;33.90;44.15;;
43787;Laerm;29409;49.306;8.500;2022-11-20T03:36:23;38.85;34.69;46.48;;
43787;Laerm;29409;49.306;8.500;2022-11-20T03:38:00;39.09;35.04;42.16;;
43787;Laerm;29409;49.306;8.500;2022-11-20T03:39:39;39.87;36.10;48.29;;
43787;Laerm;29409;49.306;8.500;2022-11-20T03:41:18;39.50;35.36;50.77;;
43787;Laerm;29409;49.306;8.500;2022-11-20T03:42:56;38.93;35.36;51.11;;
43787;Laerm;29409;49.306;8.500;2022-11-20T03:44:35;38.79;34.31;44.83;;
43787;Laerm;29409;49.306;8.500;2022-11-20T03:46:13;38.76;34.69;47.52;;
43787;Laerm;29409;49.306;8.500;2022-11-20T03:47:51;40.68;35.36;49.08;;
43787;Laerm;29409;49.306;8.500;2022-11-20T03:49:29;39.08;35.04;50.42;;
43787;Laerm;29409;49.306;8.500;2022-11-20T03:52:46;38.74;35.36;48.21;;
43787;Laerm;29409;49.306;8.500;2022-11-20T03:54:23;39.29;35.36;49.02;;
43787;Laerm;29409;49.306;8.500;2022-11-20T03:56:02;39.64;36.45;49.60;;
43787;Laerm;29409;49.306;8.500;2022-11-20T03:57:41;39.81;36.69;49.20;;
43787;Laerm;29409;49.306;8.500;2022-11-20T03:59:20;39.60;36.20;45.83;;
43787;Laerm;29409;49.306;8.500;2022-11-20T04:01:03;39.51;36.45;42.65;;
43787;Laerm;29409;49.306;8.500;2022-11-20T04:02:41;39.89;36.45;44.80;;
43787;Laerm;29409;49.306;8.500;2022-11-20T04:04:19;40.33;37.12;45.14;;
43787;Laerm;29409;49.306;8.500;2022-11-20T04:06:01;39.95;36.69;42.98;;
43787;Laerm;29409;49.306;8.500;2022-11-20T04:07:39;40.22;37.12;43.37;;
43787;Laerm;29409;49.306;8.500;2022-11-20T04:09:16;39.69;36.45;45.45;;
43787;Laerm;29409;49.306;8.500;2022-11-20T04:10:54;39.69;36.69;42.88;;
43787;Laerm;29409;49.306;8.500;2022-11-20T04:12:32;39.72;36.20;46.66;;
43787;Laerm;29409;49.306;8.500;2022-11-20T04:14:12;41.02;37.88;52.21;;
43787;Laerm;29409;49.306;8.500;2022-11-20T04:15:51;40.20;36.91;46.55;;
43787;Laerm;29409;49.306;8.500;2022-11-20T04:17:28;40.19;37.52;48.64;;
43787;Laerm;29409;49.306;8.500;2022-11-20T04:19:10;39.44;36.45;49.07;;
43787;Laerm;29409;49.306;8.500;2022-11-20T04:20:49;39.97;35.36;49.79;;
43787;Laerm;29409;49.306;8.500;2022-11-20T04:22:27;39.30;36.20;42.30;;
43787;Laerm;29409;49.306;8.500;2022-11-20T04:24:06;39.26;35.66;46.52;;
43787;Laerm;29409;49.306;8.500;2022-11-20T04:25:44;40.10;36.20;42.59;;
43787;Laerm;29409;49.306;8.500;2022-11-20T04:27:21;40.52;37.17;43.44;;
43787;Laerm;29409;49.306;8.500;2022-11-20T04:28:59;40.56;36.69;43.64;;
43787;Laerm;29409;49.306;8.500;2022-11-20T04:30:39;40.40;36.69;44.03;;
43787;Laerm;29409;49.306;8.500;2022-11-20T04:32:17;39.93;35.94;42.22;;
43787;Laerm;29409;49.306;8.500;2022-11-20T04:33:55;40.30;37.12;43.49;;
43787;Laerm;29409;49.306;8.500;2022-11-20T04:35:33;39.95;36.45;42.59;;
43787;Laerm;29409;49.306;8.500;2022-11-20T04:37:12;39.66;36.45;42.29;;
43787;Laerm;29409;49.306;8.500;2022-11-20T04:38:53;39.71;36.45;43.63;;
43787;Laerm;29409;49.306;8.500;2022-11-20T04:40:31;39.89;36.45;42.88;;
43787;Laerm;29409;49.306;8.500;2022-11-20T04:42:09;40.42;36.45;44.76;;
43787;Laerm;29409;49.306;8.500;2022-11-20T04:44:05;41.27;37.12;52.86;;
43787;Laerm;29409;49.306;8.500;2022-11-20T04:45:47;39.55;36.20;43.14;;
43787;Laerm;29409;49.306;8.500;2022-11-20T04:47:27;39.90;35.66;49.64;;
43787;Laerm;29409;49.306;8.500;2022-11-20T04:49:05;39.09;34.69;43.68;;
43787;Laerm;29409;49.306;8.500;2022-11-20T04:50:43;38.95;35.36;41.06;;
43787;Laerm;29409;49.306;8.500;2022-11-20T04:52:21;39.24;35.94;43.09;;
43787;Laerm;29409;49.306;8.500;2022-11-20T04:53:59;41.19;37.12;58.01;;
43787;Laerm;29409;49.306;8.500;2022-11-20T04:55:37;41.72;39.46;50.38;;
43787;Laerm;29409;49.306;8.500;2022-11-20T04:57:15;42.23;40.13;48.55;;
43787;Laerm;29409;49.306;8.500;2022-11-20T04:58:53;42.29;40.33;52.60;;
43787;Laerm;29409;49.306;8.500;2022-11-20T05:00:30;47.90;41.06;63.28;;
43787;Laerm;29409;49.306;8.500;2022-11-20T05:02:08;46.49;42.88;66.45;;
43787;Laerm;29409;49.306;8.500;2022-11-20T05:03:46;46.51;41.53;61.78;;
43787;Laerm;29409;49.306;8.500;2022-11-20T05:05:24;43.21;40.03;59.30;;
43787;Laerm;29409;49.306;8.500;2022-11-20T05:07:02;41.61;39.21;49.82;;
43787;Laerm;29409;49.306;8.500;2022-11-20T05:08:40;41.91;39.46;50.98;;
43787;Laerm;29409;49.306;8.500;2022-11-20T05:10:19;41.91;39.08;49.51;;
43787;Laerm;29409;49.306;8.500;2022-11-20T05:11:57;41.48;38.05;50.20;;
43787;Laerm;29409;49.306;8.500;2022-11-20T05:13:35;41.27;38.05;50.20;;
43787;Laerm;29409;49.306;8.500;2022-11-20T05:15:13;41.59;37.32;49.40;;
43787;Laerm;29409;49.306;8.500;2022-11-20T05:16:51;40.71;37.52;48.64;;
43787;Laerm;29409;49.306;8.500;2022-11-20T05:18:29;40.35;37.12;50.84;;
43787;Laerm;29409;49.306;8.500;2022-11-20T05:20:09;40.41;37.32;45.99;;
43787;Laerm;29409;49.306;8.500;2022-11-20T05:21:47;40.20;37.12;45.99;;
43787;Laerm;29409;49.306;8.500;2022-11-20T05:23:28;42.45;38.81;52.05;;
43787;Laerm;29409;49.306;8.500;2022-11-20T05:25:07;41.43;37.88;49.27;;
43787;Laerm;29409;49.306;8.500;2022-11-20T05:26:44;40.21;37.12;48.51;;
43787;Laerm;29409;49.306;8.500;2022-11-20T05:28:23;41.11;37.52;46.95;;
43787;Laerm;29409;49.306;8.500;2022-11-20T05:30:02;40.68;37.12;50.44;;
43787;Laerm;29409;49.306;8.500;2022-11-20T05:31:41;40.39;37.12;43.14;;
43787;Laerm;29409;49.306;8.500;2022-11-20T05:33:19;42.61;37.32;53.72;;
43787;Laerm;29409;49.306;8.500;2022-11-20T05:34:58;39.93;36.91;45.45;;
43787;Laerm;29409;49.306;8.500;2022-11-20T05:36:35;40.64;37.32;46.02;;
43787;Laerm;29409;49.306;8.500;2022-11-20T05:38:14;40.24;36.69;45.51;;
43787;Laerm;29409;49.306;8.500;2022-11-20T05:39:52;40.23;37.32;46.69;;
43787;Laerm;29409;49.306;8.500;2022-11-20T05:41:30;39.86;37.12;47.46;;
43787;Laerm;29409;49.306;8.500;2022-11-20T05:43:08;41.35;37.88;46.78;;
43787;Laerm;29409;49.306;8.500;2022-11-20T05:44:45;40.33;37.12;50.18;;
43787;Laerm;29409;49.306;8.500;2022-11-20T05:46:23;40.53;37.70;48.73;;
43787;Laerm;29409;49.306;8.500;2022-11-20T05:48:01;44.94;38.99;61.10;;
43787;Laerm;29409;49.306;8.500;2022-11-20T05:49:39;41.90;39.70;49.45;;
43787;Laerm;29409;49.306;8.500;2022-11-20T05:51:17;41.32;38.05;49.53;;
43787;Laerm;29409;49.306;8.500;2022-11-20T05:52:57;41.39;38.67;48.74;;
43787;Laerm;29409;49.306;8.500;2022-11-20T05:54:35;41.94;38.81;50.17;;
43787;Laerm;29409;49.306;8.500;2022-11-20T05:56:14;44.22;42.41;49.82;;
43787;Laerm;29409;49.306;8.500;2022-11-20T05:57:53;43.61;41.61;51.14;;
43787;Laerm;29409;49.306;8.500;2022-11-20T05:59:32;44.15;41.38;50.08;;
43787;Laerm;29409;49.306;8.500;2022-11-20T06:01:15;45.81;43.04;54.16;;
43787;Laerm;29409;49.306;8.500;2022-11-20T06:02:53;45.71;43.49;53.50;;
43787;Laerm;29409;49.306;8.500;2022-11-20T06:04:31;44.48;42.16;51.88;;
43787;Laerm;29409;49.306;8.500;2022-11-20T06:06:10;44.27;42.09;52.43;;
43787;Laerm;29409;49.306;8.500;2022-11-20T06:07:48;42.68;40.23;52.55;;
43787;Laerm;29409;49.306;8.500;2022-11-20T06:09:26;42.60;38.67;57.46;;
43787;Laerm;29409;49.306;8.500;2022-11-20T06:11:05;40.66;38.05;51.30;;
43787;Laerm;29409;49.306;8.500;2022-11-20T06:12:43;40.35;37.32;48.28;;
43787;Laerm;29409;49.306;8.500;2022-11-20T06:14:21;40.35;36.91;47.38;;
43787;Laerm;29409;49.306;8.500;2022-11-20T06:15:59;40.90;36.45;46.66;;
43787;Laerm;29409;49.306;8.500;2022-11-20T06:17:37;39.86;36.91;46.25;;
43787;Laerm;29409;49.306;8.500;2022-11-20T06:19:15;39.89;36.91;42.93;;
43787;Laerm;29409;49.306;8.500;2022-11-20T06:21:02;39.88;36.34;49.56;;
43787;Laerm;29409;49.306;8.500;2022-11-20T06:22:41;39.81;36.45;47.52;;
43787;Laerm;29409;49.306;8.500;2022-11-20T06:24:18;39.71;36.45;42.65;;
43787;Laerm;29409;49.306;8.500;2022-11-20T06:25:56;39.59;36.20;43.24;;
43787;Laerm;29409;49.306;8.500;2022-11-20T06:27:35;39.61;36.45;42.35;;
43787;Laerm;29409;49.306;8.500;2022-11-20T06:29:13;39.74;35.01;41.89;;
43787;Laerm;29409;49.306;8.500;2022-11-20T06:30:50;40.67;36.98;47.61;;
43787;Laerm;29409;49.306;8.500;2022-11-20T06:32:28;39.71;36.91;43.77;;
43787;Laerm;29409;49.306;8.500;2022-11-20T06:34:08;40.76;36.91;48.43;;
43787;Laerm;29409;49.306;8.500;2022-11-20T06:35:46;39.88;36.91;44.39;;
43787;Laerm;29409;49.306;8.500;2022-11-20T06:37:24;39.73;36.20;41.96;;
43787;Laerm;29409;49.306;8.500;2022-11-20T06:39:02;39.60;36.20;42.09;;
43787;Laerm;29409;49.306;8.500;2022-11-20T06:40:41;40.79;36.91;45.07;;
43787;Laerm;29409;49.306;8.500;2022-11-20T06:42:19;40.43;36.91;43.89;;
43787;Laerm;29409;49.306;8.500;2022-11-20T06:43:58;42.47;36.69;52.35;;
43787;Laerm;29409;49.306;8.500;2022-11-20T06:45:36;40.51;36.91;46.59;;
43787;Laerm;29409;49.306;8.500;2022-11-20T06:47:14;39.74;36.45;43.72;;
43787;Laerm;29409;49.306;8.500;2022-11-20T06:48:52;40.19;36.91;43.80;;
43787;Laerm;29409;49.306;8.500;2022-11-20T06:50:30;39.86;36.91;42.35;;
43787;Laerm;29409;49.306;8.500;2022-11-20T06:52:09;39.95;36.45;43.86;;
43787;Laerm;29409;49.306;8.500;2022-11-20T06:53:47;46.50;37.70;57.23;;
43787;Laerm;29409;49.306;8.500;2022-11-20T06:55:25;41.30;37.70;44.80;;
43787;Laerm;29409;49.306;8.500;2022-11-20T06:57:03;42.50;38.05;49.65;;
43787;Laerm;29409;49.306;8.500;2022-11-20T06:58:41;40.70;36.91;43.68;;
43787;Laerm;29409;49.306;8.500;2022-11-20T07:00:18;48.91;37.88;68.29;;
43787;Laerm;29409;49.306;8.500;2022-11-20T07:01:56;43.16;38.37;54.27;;
43787;Laerm;29409;49.306;8.500;2022-11-20T07:03:35;41.56;38.37;48.34;;
43787;Laerm;29409;49.306;8.500;2022-11-20T07:05:13;41.65;38.81;44.87;;
43787;Laerm;29409;49.306;8.500;2022-11-20T07:06:51;42.02;39.08;49.19;;
43787;Laerm;29409;49.306;8.500;2022-11-20T07:08:29;41.89;38.67;46.73;;
43787;Laerm;29409;49.306;8.500;2022-11-20T07:10:08;42.32;38.37;53.85;;
43787;Laerm;29409;49.306;8.500;2022-11-20T07:11:46;49.61;40.62;63.77;;
43787;Laerm;29409;49.306;8.500;2022-11-20T07:13:25;45.69;38.95;67.69;;
43787;Laerm;29409;49.306;8.500;2022-11-20T07:15:03;42.53;38.21;55.18;;
43787;Laerm;29409;49.306;8.500;2022-11-20T07:16:41;43.19;38.21;61.18;;
43787;Laerm;29409;49.306;8.500;2022-11-20T07:18:19;41.62;37.52;54.87;;
43787;Laerm;29409;49.306;8.500;2022-11-20T07:19:57;49.96;37.12;71.23;;
43787;Laerm;29409;49.306;8.500;2022-11-20T07:21:35;41.08;37.12;47.36;;
43787;Laerm;29409;49.306;8.500;2022-11-20T07:23:13;41.17;38.47;45.80;;
43787;Laerm;29409;49.306;8.500;2022-11-20T07:24:51;47.75;37.52;68.01;;
43787;Laerm;29409;49.306;8.500;2022-11-20T07:26:29;41.27;37.52;49.96;;
43787;Laerm;29409;49.306;8.500;2022-11-20T07:28:07;40.91;37.32;47.02;;
43787;Laerm;29409;49.306;8.500;2022-11-20T07:29:44;40.68;37.32;47.44;;
43787;Laerm;29409;49.306;8.500;2022-11-20T07:31:23;41.88;37.87;53.88;;
43787;Laerm;29409;49.306;8.500;2022-11-20T07:33:01;43.71;39.46;54.46;;
43787;Laerm;29409;49.306;8.500;2022-11-20T07:34:38;43.59;39.58;52.77;;
43787;Laerm;29409;49.306;8.500;2022-11-20T07:36:16;47.69;39.58;73.94;;
43787;Laerm;29409;49.306;8.500;2022-11-20T07:37:54;42.62;36.91;49.64;;
43787;Laerm;29409;49.306;8.500;2022-11-20T07:39:32;41.83;38.37;48.81;;
43787;Laerm;29409;49.306;8.500;2022-11-20T07:41:10;41.31;37.32;54.84;;
43787;Laerm;29409;49.306;8.500;2022-11-20T07:42:48;41.53;38.21;53.47;;
43787;Laerm;29409;49.306;8.500;2022-11-20T07:44:26;41.62;38.21;49.16;;
43787;Laerm;29409;49.306;8.500;2022-11-20T07:46:04;46.92;41.46;56.50;;
43787;Laerm;29409;49.306;8.500;2022-11-20T07:47:42;48.40;42.88;57.29;;
43787;Laerm;29409;49.306;8.500;2022-11-20T07:49:20;46.85;38.67;59.94;;
43787;Laerm;29409;49.306;8.500;2022-11-20T07:50:58;41.12;37.70;48.71;;
43787;Laerm;29409;49.306;8.500;2022-11-20T07:52:36;44.37;38.37;61.50;;
43787;Laerm;29409;49.306;8.500;2022-11-20T07:54:14;41.30;38.21;51.19;;
43787;Laerm;29409;49.306;8.500;2022-11-20T07:55:52;42.97;38.81;53.11;;
43787;Laerm;29409;49.306;8.500;2022-11-20T07:57:31;41.30;38.37;45.54;;
43787;Laerm;29409;49.306;8.500;2022-11-20T07:59:09;41.97;38.52;54.31;;
43787;Laerm;29409;49.306;8.500;2022-11-20T08:00:49;42.29;38.52;49.29;;
43787;Laerm;29409;49.306;8.500;2022-11-20T08:02:27;42.64;38.52;52.59;;
43787;Laerm;29409;49.306;8.500;2022-11-20T08:04:05;41.87;38.05;49.44;;
43787;Laerm;29409;49.306;8.500;2022-11-20T08:05:43;42.04;37.88;50.98;;
43787;Laerm;29409;49.306;8.500;2022-11-20T08:07:21;40.95;37.70;46.80;;
43787;Laerm;29409;49.306;8.500;2022-11-20T08:08:58;40.62;37.12;49.75;;
43787;Laerm;29409;49.306;8.500;2022-11-20T08:10:36;41.71;37.70;48.49;;
43787;Laerm;29409;49.306;8.500;2022-11-20T08:12:20;40.81;37.52;54.63;;
43787;Laerm;29409;49.306;8.500;2022-11-20T08:14:17;42.13;38.21;54.65;;
43787;Laerm;29409;49.306;8.500;2022-11-20T08:15:55;42.48;37.88;50.02;;
43787;Laerm;29409;49.306;8.500;2022-11-20T08:17:33;44.00;38.21;59.31;;
43787;Laerm;29409;49.306;8.500;2022-11-20T08:19:12;40.42;37.32;47.10;;
43787;Laerm;29409;49.306;8.500;2022-11-20T08:20:51;40.79;37.88;44.19;;
43787;Laerm;29409;49.306;8.500;2022-11-20T08:22:28;44.20;37.88;59.64;;
43787;Laerm;29409;49.306;8.500;2022-11-20T08:24:06;41.83;38.52;48.42;;
43787;Laerm;29409;49.306;8.500;2022-11-20T08:25:48;43.67;38.37;50.52;;
43787;Laerm;29409;49.306;8.500;2022-11-20T08:27:26;42.27;38.67;49.23;;
43787;Laerm;29409;49.306;8.500;2022-11-20T08:29:04;42.43;38.95;53.44;;
43787;Laerm;29409;49.306;8.500;2022-11-20T08:30:42;41.86;38.95;49.78;;
43787;Laerm;29409;49.306;8.500;2022-11-20T08:32:20;47.61;37.88;65.28;;
43787;Laerm;29409;49.306;8.500;2022-11-20T08:33:59;40.87;37.12;44.27;;
43787;Laerm;29409;49.306;8.500;2022-11-20T08:35:37;41.88;37.88;50.67;;
43787;Laerm;29409;49.306;8.500;2022-11-20T08:37:16;41.48;38.05;51.37;;
43787;Laerm;29409;49.306;8.500;2022-11-20T08:38:55;40.82;37.70;45.36;;
43787;Laerm;29409;49.306;8.500;2022-11-20T08:40:33;44.02;38.21;53.69;;
43787;Laerm;29409;49.306;8.500;2022-11-20T08:42:11;44.18;38.67;54.41;;
43787;Laerm;29409;49.306;8.500;2022-11-20T08:43:49;45.06;37.32;58.81;;
43787;Laerm;29409;49.306;8.500;2022-11-20T08:45:27;42.78;36.91;53.00;;
43787;Laerm;29409;49.306;8.500;2022-11-20T08:47:05;44.24;38.21;58.59;;
43787;Laerm;29409;49.306;8.500;2022-11-20T08:48:43;42.17;38.21;47.04;;
43787;Laerm;29409;49.306;8.500;2022-11-20T08:50:22;42.97;39.58;48.18;;
43787;Laerm;29409;49.306;8.500;2022-11-20T08:52:00;46.26;41.30;58.86;;
43787;Laerm;29409;49.306;8.500;2022-11-20T08:53:38;45.93;41.14;55.49;;
43787;Laerm;29409;49.306;8.500;2022-11-20T08:55:16;50.23;40.53;68.57;;
43787;Laerm;29409;49.306;8.500;2022-11-20T08:56:54;45.69;41.38;56.77;;
43787;Laerm;29409;49.306;8.500;2022-11-20T08:58:32;46.82;42.22;55.63;;
43787;Laerm;29409;49.306;8.500;2022-11-20T09:00:10;44.84;40.62;52.86;;
43787;Laerm;29409;49.306;8.500;2022-11-20T09:01:48;45.61;38.67;59.98;;
43787;Laerm;29409;49.306;8.500;2022-11-20T09:03:26;42.62;38.52;61.69;;
43787;Laerm;29409;49.306;8.500;2022-11-20T09:05:05;44.52;37.88;65.09;;
43787;Laerm;29409;49.306;8.500;2022-11-20T09:06:43;43.68;38.05;59.45;;
43787;Laerm;29409;49.306;8.500;2022-11-20T09:08:21;41.17;38.21;45.80;;
43787;Laerm;29409;49.306;8.500;2022-11-20T09:09:58;41.91;38.05;58.03;;
43787;Laerm;29409;49.306;8.500;2022-11-20T09:11:36;41.33;38.21;49.35;;
43787;Laerm;29409;49.306;8.500;2022-11-20T09:13:14;44.35;38.21;54.53;;
43787;Laerm;29409;49.306;8.500;2022-11-20T09:14:52;43.14;38.52;53.36;;
43787;Laerm;29409;49.306;8.500;2022-11-20T09:16:30;43.76;39.08;51.17;;